Marseille/Provence

Airport
ICAO code: 
LFML
Summary
ICAO Region: 
EUR
Territory: 
Location: 
Marseille, Provence-Alpes-Cote d' Azur,
Coordinates: 
Aerial View: 
43° 26' 4.697" N, 5° 12' 59.72" E
Metar
Observation
LFML 172130Z AUTO 13005KT 090V160 9000 NSC 00/M01 Q1027 BECMG 34010KT
Station
Marseille / Marignane
Date/Time
2022-01-17 21:30:00
Wind direction
130°
Wind speed
05 kts
Lowest cloud amount
nil significant cloud
Temperature
0°C
Dew point
-1°C
Humidity
92%
QNH
1027 hPa
Weather condition
n/a

Description

International airport serving Marseille.

Climatology

Dry-summer subtropical ”Mediterranean" climate (Köppen climate classification Csa) - characterized by hot, dry summers and mild winters. During the summer, subtropical high pressure cells dominate, making rainfall unlikely except for the occasional thunderstorm. In the winter, periodic storms bring rain.

Runways

Designator Length Width Surface Rops
13R/31L 2370 45 ASP Yes/Yes
14R/32L 2370 45 ASP Yes/Yes
13L/31R 3500 45 ASP Yes/Yes
14L/32R 3500 45 ASP Yes/Yes
Airport map: 
Aerial View: 

Accidents and Serious Incidents at or in the vicinity of LFML

SKYbrary Partners:

Safety knowledge contributed by: